sensor_id;sensor_type;location;lat;lon;timestamp;P1;durP1;ratioP1;P2;durP2;ratioP2
2019;SDS011;1014;51.960;8.542;2022-12-18T00:02:20;27.20;;;25.20;;
2019;SDS011;1014;51.960;8.542;2022-12-18T00:04:48;28.42;;;26.33;;
2019;SDS011;1014;51.960;8.542;2022-12-18T00:07:16;26.50;;;24.80;;
2019;SDS011;1014;51.960;8.542;2022-12-18T00:09:43;26.73;;;24.95;;
2019;SDS011;1014;51.960;8.542;2022-12-18T00:12:10;29.45;;;27.23;;
2019;SDS011;1014;51.960;8.542;2022-12-18T00:14:37;25.33;;;23.73;;
2019;SDS011;1014;51.960;8.542;2022-12-18T00:17:04;29.13;;;27.02;;
2019;SDS011;1014;51.960;8.542;2022-12-18T00:19:31;26.75;;;24.95;;
2019;SDS011;1014;51.960;8.542;2022-12-18T00:21:58;26.33;;;24.70;;
2019;SDS011;1014;51.960;8.542;2022-12-18T00:24:26;27.08;;;25.17;;
2019;SDS011;1014;51.960;8.542;2022-12-18T00:26:53;25.05;;;23.55;;
2019;SDS011;1014;51.960;8.542;2022-12-18T00:29:21;27.27;;;25.15;;
2019;SDS011;1014;51.960;8.542;2022-12-18T00:31:48;26.90;;;24.80;;
2019;SDS011;1014;51.960;8.542;2022-12-18T00:34:15;28.08;;;25.85;;
2019;SDS011;1014;51.960;8.542;2022-12-18T00:36:42;26.73;;;24.90;;
2019;SDS011;1014;51.960;8.542;2022-12-18T00:39:09;26.08;;;24.48;;
2019;SDS011;1014;51.960;8.542;2022-12-18T00:41:38;26.05;;;24.45;;
2019;SDS011;1014;51.960;8.542;2022-12-18T00:44:23;25.40;;;23.67;;
2019;SDS011;1014;51.960;8.542;2022-12-18T00:46:50;25.10;;;23.30;;
2019;SDS011;1014;51.960;8.542;2022-12-18T00:49:18;25.40;;;23.80;;
2019;SDS011;1014;51.960;8.542;2022-12-18T00:51:45;25.38;;;23.73;;
2019;SDS011;1014;51.960;8.542;2022-12-18T00:54:12;24.58;;;23.17;;
2019;SDS011;1014;51.960;8.542;2022-12-18T00:56:41;25.85;;;23.73;;
2019;SDS011;1014;51.960;8.542;2022-12-18T00:59:08;25.67;;;23.77;;
2019;SDS011;1014;51.960;8.542;2022-12-18T01:01:35;24.73;;;23.23;;
2019;SDS011;1014;51.960;8.542;2022-12-18T01:04:02;25.25;;;23.63;;
2019;SDS011;1014;51.960;8.542;2022-12-18T01:06:29;24.33;;;22.88;;
2019;SDS011;1014;51.960;8.542;2022-12-18T01:08:56;24.13;;;22.48;;
2019;SDS011;1014;51.960;8.542;2022-12-18T01:11:23;24.73;;;23.08;;
2019;SDS011;1014;51.960;8.542;2022-12-18T01:13:53;24.17;;;22.77;;
2019;SDS011;1014;51.960;8.542;2022-12-18T01:16:20;24.23;;;22.67;;
2019;SDS011;1014;51.960;8.542;2022-12-18T01:18:50;25.05;;;23.55;;
2019;SDS011;1014;51.960;8.542;2022-12-18T01:21:17;24.33;;;22.92;;
2019;SDS011;1014;51.960;8.542;2022-12-18T01:23:44;23.88;;;22.42;;
2019;SDS011;1014;51.960;8.542;2022-12-18T01:26:12;24.17;;;22.67;;
2019;SDS011;1014;51.960;8.542;2022-12-18T01:28:40;26.15;;;24.30;;
2019;SDS011;1014;51.960;8.542;2022-12-18T01:31:11;24.90;;;23.33;;
2019;SDS011;1014;51.960;8.542;2022-12-18T01:33:38;25.67;;;24.08;;
2019;SDS011;1014;51.960;8.542;2022-12-18T01:36:05;23.80;;;22.30;;
2019;SDS011;1014;51.960;8.542;2022-12-18T01:38:32;23.73;;;22.08;;
2019;SDS011;1014;51.960;8.542;2022-12-18T01:40:59;25.27;;;23.35;;
2019;SDS011;1014;51.960;8.542;2022-12-18T01:43:40;25.00;;;23.35;;
2019;SDS011;1014;51.960;8.542;2022-12-18T01:46:07;24.45;;;22.95;;
2019;SDS011;1014;51.960;8.542;2022-12-18T01:48:36;25.48;;;23.80;;
2019;SDS011;1014;51.960;8.542;2022-12-18T01:51:03;24.20;;;22.70;;
2019;SDS011;1014;51.960;8.542;2022-12-18T01:53:31;24.35;;;22.85;;
2019;SDS011;1014;51.960;8.542;2022-12-18T01:55:58;23.52;;;22.20;;
2019;SDS011;1014;51.960;8.542;2022-12-18T01:58:27;24.00;;;22.50;;
2019;SDS011;1014;51.960;8.542;2022-12-18T02:00:56;23.15;;;21.75;;
2019;SDS011;1014;51.960;8.542;2022-12-18T02:03:23;23.42;;;22.13;;
2019;SDS011;1014;51.960;8.542;2022-12-18T02:05:53;23.20;;;21.90;;
2019;SDS011;1014;51.960;8.542;2022-12-18T02:08:24;24.33;;;22.92;;
2019;SDS011;1014;51.960;8.542;2022-12-18T02:10:54;24.73;;;23.02;;
2019;SDS011;1014;51.960;8.542;2022-12-18T02:13:25;24.15;;;22.20;;
2019;SDS011;1014;51.960;8.542;2022-12-18T02:15:56;24.35;;;22.75;;
2019;SDS011;1014;51.960;8.542;2022-12-18T02:18:26;23.20;;;21.90;;
2019;SDS011;1014;51.960;8.542;2022-12-18T02:20:57;25.27;;;23.67;;
2019;SDS011;1014;51.960;8.542;2022-12-18T02:23:35;24.42;;;22.83;;
2019;SDS011;1014;51.960;8.542;2022-12-18T02:26:08;24.08;;;22.38;;
2019;SDS011;1014;51.960;8.542;2022-12-18T02:28:40;24.48;;;22.88;;
2019;SDS011;1014;51.960;8.542;2022-12-18T02:31:08;24.52;;;23.00;;
2019;SDS011;1014;51.960;8.542;2022-12-18T02:33:37;23.05;;;21.65;;
2019;SDS011;1014;51.960;8.542;2022-12-18T02:36:06;23.77;;;22.42;;
2019;SDS011;1014;51.960;8.542;2022-12-18T02:38:34;24.92;;;23.33;;
2019;SDS011;1014;51.960;8.542;2022-12-18T02:41:01;24.20;;;22.70;;
2019;SDS011;1014;51.960;8.542;2022-12-18T02:43:30;23.50;;;21.95;;
2019;SDS011;1014;51.960;8.542;2022-12-18T02:45:57;23.58;;;22.25;;
2019;SDS011;1014;51.960;8.542;2022-12-18T02:48:26;24.83;;;23.00;;
2019;SDS011;1014;51.960;8.542;2022-12-18T02:50:56;23.17;;;21.88;;
2019;SDS011;1014;51.960;8.542;2022-12-18T02:53:27;23.85;;;22.30;;
2019;SDS011;1014;51.960;8.542;2022-12-18T02:55:59;23.77;;;22.30;;
2019;SDS011;1014;51.960;8.542;2022-12-18T02:58:31;22.95;;;21.48;;
2019;SDS011;1014;51.960;8.542;2022-12-18T03:01:00;23.50;;;22.10;;
2019;SDS011;1014;51.960;8.542;2022-12-18T03:03:29;24.23;;;22.83;;
2019;SDS011;1014;51.960;8.542;2022-12-18T03:05:57;23.65;;;22.30;;
2019;SDS011;1014;51.960;8.542;2022-12-18T03:08:27;22.48;;;21.27;;
2019;SDS011;1014;51.960;8.542;2022-12-18T03:10:55;23.27;;;21.98;;
2019;SDS011;1014;51.960;8.542;2022-12-18T03:13:30;22.90;;;21.60;;
2019;SDS011;1014;51.960;8.542;2022-12-18T03:15:59;22.63;;;21.40;;
2019;SDS011;1014;51.960;8.542;2022-12-18T03:18:29;23.58;;;22.08;;
2019;SDS011;1014;51.960;8.542;2022-12-18T03:20:58;22.60;;;21.40;;
2019;SDS011;1014;51.960;8.542;2022-12-18T03:23:27;23.50;;;22.10;;
2019;SDS011;1014;51.960;8.542;2022-12-18T03:25:56;23.13;;;21.52;;
2019;SDS011;1014;51.960;8.542;2022-12-18T03:28:24;24.27;;;22.88;;
2019;SDS011;1014;51.960;8.542;2022-12-18T03:30:52;22.60;;;21.30;;
2019;SDS011;1014;51.960;8.542;2022-12-18T03:33:24;22.60;;;21.23;;
2019;SDS011;1014;51.960;8.542;2022-12-18T03:35:51;22.40;;;21.13;;
2019;SDS011;1014;51.960;8.542;2022-12-18T03:38:18;23.83;;;22.42;;
2019;SDS011;1014;51.960;8.542;2022-12-18T03:40:50;23.13;;;21.67;;
2019;SDS011;1014;51.960;8.542;2022-12-18T03:43:20;23.10;;;21.45;;
2019;SDS011;1014;51.960;8.542;2022-12-18T03:45:50;22.83;;;21.52;;
2019;SDS011;1014;51.960;8.542;2022-12-18T03:48:19;22.40;;;21.10;;
2019;SDS011;1014;51.960;8.542;2022-12-18T03:50:51;22.88;;;21.58;;
2019;SDS011;1014;51.960;8.542;2022-12-18T03:53:22;21.92;;;20.63;;
2019;SDS011;1014;51.960;8.542;2022-12-18T03:55:52;23.05;;;21.65;;
2019;SDS011;1014;51.960;8.542;2022-12-18T03:58:20;22.88;;;21.50;;
2019;SDS011;1014;51.960;8.542;2022-12-18T04:00:48;22.85;;;21.55;;
2019;SDS011;1014;51.960;8.542;2022-12-18T04:03:16;22.70;;;21.50;;
2019;SDS011;1014;51.960;8.542;2022-12-18T04:05:45;23.88;;;22.48;;
2019;SDS011;1014;51.960;8.542;2022-12-18T04:08:16;22.80;;;21.40;;
2019;SDS011;1014;51.960;8.542;2022-12-18T04:10:43;21.80;;;20.70;;
2019;SDS011;1014;51.960;8.542;2022-12-18T04:13:11;23.45;;;22.05;;
2019;SDS011;1014;51.960;8.542;2022-12-18T04:15:38;22.60;;;21.40;;
2019;SDS011;1014;51.960;8.542;2022-12-18T04:18:05;22.98;;;21.52;;
2019;SDS011;1014;51.960;8.542;2022-12-18T04:20:32;22.90;;;21.40;;
2019;SDS011;1014;51.960;8.542;2022-12-18T04:22:59;23.10;;;21.90;;
2019;SDS011;1014;51.960;8.542;2022-12-18T04:25:27;22.60;;;21.40;;
2019;SDS011;1014;51.960;8.542;2022-12-18T04:27:54;22.10;;;20.80;;
2019;SDS011;1014;51.960;8.542;2022-12-18T04:30:21;24.08;;;22.65;;
2019;SDS011;1014;51.960;8.542;2022-12-18T04:32:48;23.02;;;21.83;;
2019;SDS011;1014;51.960;8.542;2022-12-18T04:35:16;22.70;;;21.40;;
2019;SDS011;1014;51.960;8.542;2022-12-18T04:37:43;22.20;;;21.00;;
2019;SDS011;1014;51.960;8.542;2022-12-18T04:40:10;22.35;;;21.15;;
2019;SDS011;1014;51.960;8.542;2022-12-18T04:42:40;22.92;;;21.60;;
2019;SDS011;1014;51.960;8.542;2022-12-18T04:45:07;22.45;;;21.13;;
2019;SDS011;1014;51.960;8.542;2022-12-18T04:47:34;23.42;;;22.13;;
2019;SDS011;1014;51.960;8.542;2022-12-18T04:50:02;21.95;;;20.75;;
2019;SDS011;1014;51.960;8.542;2022-12-18T04:52:29;23.52;;;21.92;;
2019;SDS011;1014;51.960;8.542;2022-12-18T04:54:57;22.80;;;21.33;;
2019;SDS011;1014;51.960;8.542;2022-12-18T04:57:25;22.80;;;21.50;;
2019;SDS011;1014;51.960;8.542;2022-12-18T04:59:53;22.75;;;21.55;;
2019;SDS011;1014;51.960;8.542;2022-12-18T05:02:20;23.05;;;21.77;;
2019;SDS011;1014;51.960;8.542;2022-12-18T05:04:47;23.25;;;21.90;;
2019;SDS011;1014;51.960;8.542;2022-12-18T05:07:14;23.10;;;21.77;;
2019;SDS011;1014;51.960;8.542;2022-12-18T05:09:42;23.60;;;22.15;;
2019;SDS011;1014;51.960;8.542;2022-12-18T05:12:09;23.63;;;22.17;;
2019;SDS011;1014;51.960;8.542;2022-12-18T05:14:36;23.95;;;22.48;;
2019;SDS011;1014;51.960;8.542;2022-12-18T05:17:04;24.08;;;22.67;;
2019;SDS011;1014;51.960;8.542;2022-12-18T05:19:31;23.15;;;21.80;;
2019;SDS011;1014;51.960;8.542;2022-12-18T05:21:58;23.90;;;22.50;;
2019;SDS011;1014;51.960;8.542;2022-12-18T05:24:26;24.10;;;22.70;;
2019;SDS011;1014;51.960;8.542;2022-12-18T05:26:53;23.88;;;22.42;;
2019;SDS011;1014;51.960;8.542;2022-12-18T05:29:20;23.98;;;22.58;;
2019;SDS011;1014;51.960;8.542;2022-12-18T05:31:47;24.45;;;22.85;;
2019;SDS011;1014;51.960;8.542;2022-12-18T05:34:16;24.80;;;23.20;;
2019;SDS011;1014;51.960;8.542;2022-12-18T05:36:45;23.42;;;22.13;;
2019;SDS011;1014;51.960;8.542;2022-12-18T05:39:12;24.30;;;22.80;;
2019;SDS011;1014;51.960;8.542;2022-12-18T05:41:39;24.48;;;22.98;;
2019;SDS011;1014;51.960;8.542;2022-12-18T05:44:06;24.75;;;23.10;;
2019;SDS011;1014;51.960;8.542;2022-12-18T05:46:33;24.60;;;23.20;;
2019;SDS011;1014;51.960;8.542;2022-12-18T05:49:01;24.27;;;22.77;;
2019;SDS011;1014;51.960;8.542;2022-12-18T05:51:30;24.42;;;22.98;;
2019;SDS011;1014;51.960;8.542;2022-12-18T05:53:57;26.05;;;24.05;;
2019;SDS011;1014;51.960;8.542;2022-12-18T05:56:24;24.42;;;22.92;;
2019;SDS011;1014;51.960;8.542;2022-12-18T05:58:51;23.88;;;22.38;;
2019;SDS011;1014;51.960;8.542;2022-12-18T06:01:19;25.52;;;23.95;;
2019;SDS011;1014;51.960;8.542;2022-12-18T06:03:47;25.73;;;23.90;;
2019;SDS011;1014;51.960;8.542;2022-12-18T06:06:14;24.30;;;22.80;;
2019;SDS011;1014;51.960;8.542;2022-12-18T06:08:43;24.00;;;22.30;;
2019;SDS011;1014;51.960;8.542;2022-12-18T06:11:10;25.85;;;23.92;;
2019;SDS011;1014;51.960;8.542;2022-12-18T06:13:38;24.92;;;23.35;;
2019;SDS011;1014;51.960;8.542;2022-12-18T06:16:05;24.10;;;22.42;;
2019;SDS011;1014;51.960;8.542;2022-12-18T06:18:33;25.30;;;23.60;;
2019;SDS011;1014;51.960;8.542;2022-12-18T06:21:00;24.52;;;22.92;;
2019;SDS011;1014;51.960;8.542;2022-12-18T06:23:27;25.17;;;23.58;;
2019;SDS011;1014;51.960;8.542;2022-12-18T06:25:56;24.25;;;22.63;;
2019;SDS011;1014;51.960;8.542;2022-12-18T06:28:23;24.95;;;23.25;;
2019;SDS011;1014;51.960;8.542;2022-12-18T06:30:50;24.80;;;23.20;;
2019;SDS011;1014;51.960;8.542;2022-12-18T06:33:18;25.52;;;23.77;;
2019;SDS011;1014;51.960;8.542;2022-12-18T06:35:45;24.40;;;22.75;;
2019;SDS011;1014;51.960;8.542;2022-12-18T06:38:12;24.27;;;22.80;;
2019;SDS011;1014;51.960;8.542;2022-12-18T06:40:39;24.33;;;22.63;;
2019;SDS011;1014;51.960;8.542;2022-12-18T06:43:07;25.00;;;23.42;;
2019;SDS011;1014;51.960;8.542;2022-12-18T06:45:34;25.88;;;23.98;;
2019;SDS011;1014;51.960;8.542;2022-12-18T06:48:01;25.75;;;24.15;;
2019;SDS011;1014;51.960;8.542;2022-12-18T06:50:28;24.88;;;22.98;;
2019;SDS011;1014;51.960;8.542;2022-12-18T06:52:55;24.55;;;23.05;;
2019;SDS011;1014;51.960;8.542;2022-12-18T06:55:22;24.80;;;23.08;;
2019;SDS011;1014;51.960;8.542;2022-12-18T06:57:49;25.20;;;23.30;;
2019;SDS011;1014;51.960;8.542;2022-12-18T07:00:18;34.63;;;31.50;;
2019;SDS011;1014;51.960;8.542;2022-12-18T07:02:45;35.95;;;32.45;;
2019;SDS011;1014;51.960;8.542;2022-12-18T07:05:12;32.92;;;30.13;;
2019;SDS011;1014;51.960;8.542;2022-12-18T07:07:39;31.58;;;29.02;;
2019;SDS011;1014;51.960;8.542;2022-12-18T07:10:07;27.60;;;25.65;;
2019;SDS011;1014;51.960;8.542;2022-12-18T07:12:34;26.90;;;24.85;;
2019;SDS011;1014;51.960;8.542;2022-12-18T07:15:02;26.27;;;24.17;;
2019;SDS011;1014;51.960;8.542;2022-12-18T07:17:30;25.98;;;24.17;;
2019;SDS011;1014;51.960;8.542;2022-12-18T07:19:57;26.13;;;24.23;;
2019;SDS011;1014;51.960;8.542;2022-12-18T07:22:24;27.15;;;25.10;;
2019;SDS011;1014;51.960;8.542;2022-12-18T07:24:51;25.65;;;23.88;;
2019;SDS011;1014;51.960;8.542;2022-12-18T07:27:18;27.38;;;25.40;;
2019;SDS011;1014;51.960;8.542;2022-12-18T07:29:45;27.50;;;25.45;;
2019;SDS011;1014;51.960;8.542;2022-12-18T07:32:12;25.52;;;23.60;;
2019;SDS011;1014;51.960;8.542;2022-12-18T07:34:41;25.05;;;23.55;;
2019;SDS011;1014;51.960;8.542;2022-12-18T07:37:08;26.02;;;24.30;;
2019;SDS011;1014;51.960;8.542;2022-12-18T07:39:35;26.48;;;24.48;;
2019;SDS011;1014;51.960;8.542;2022-12-18T07:42:02;26.00;;;23.95;;
2019;SDS011;1014;51.960;8.542;2022-12-18T07:44:46;26.58;;;24.77;;
2019;SDS011;1014;51.960;8.542;2022-12-18T07:47:13;36.58;;;33.00;;
2019;SDS011;1014;51.960;8.542;2022-12-18T07:49:42;27.95;;;25.65;;
2019;SDS011;1014;51.960;8.542;2022-12-18T07:52:09;27.20;;;25.20;;
2019;SDS011;1014;51.960;8.542;2022-12-18T07:54:37;53.20;;;41.42;;
2019;SDS011;1014;51.960;8.542;2022-12-18T07:57:05;56.67;;;42.20;;
2019;SDS011;1014;51.960;8.542;2022-12-18T07:59:32;69.68;;;40.03;;
2019;SDS011;1014;51.960;8.542;2022-12-18T08:01:59;31.10;;;28.20;;
2019;SDS011;1014;51.960;8.542;2022-12-18T08:04:26;35.13;;;31.40;;
2019;SDS011;1014;51.960;8.542;2022-12-18T08:06:55;35.42;;;32.22;;
2019;SDS011;1014;51.960;8.542;2022-12-18T08:09:22;30.30;;;27.70;;
2019;SDS011;1014;51.960;8.542;2022-12-18T08:11:49;28.33;;;26.15;;
2019;SDS011;1014;51.960;8.542;2022-12-18T08:14:16;29.45;;;27.40;;
2019;SDS011;1014;51.960;8.542;2022-12-18T08:16:43;26.15;;;24.50;;
2019;SDS011;1014;51.960;8.542;2022-12-18T08:19:10;28.27;;;26.27;;
2019;SDS011;1014;51.960;8.542;2022-12-18T08:21:37;24.20;;;22.80;;
2019;SDS011;1014;51.960;8.542;2022-12-18T08:24:06;24.15;;;22.65;;
2019;SDS011;1014;51.960;8.542;2022-12-18T08:26:33;26.13;;;23.92;;
2019;SDS011;1014;51.960;8.542;2022-12-18T08:29:00;26.10;;;24.20;;
2019;SDS011;1014;51.960;8.542;2022-12-18T08:31:28;25.95;;;24.15;;
2019;SDS011;1014;51.960;8.542;2022-12-18T08:33:55;27.10;;;25.27;;
2019;SDS011;1014;51.960;8.542;2022-12-18T08:36:23;26.77;;;25.00;;
2019;SDS011;1014;51.960;8.542;2022-12-18T08:38:51;25.58;;;23.75;;
2019;SDS011;1014;51.960;8.542;2022-12-18T08:41:20;23.00;;;21.75;;
2019;SDS011;1014;51.960;8.542;2022-12-18T08:43:47;25.65;;;23.95;;
2019;SDS011;1014;51.960;8.542;2022-12-18T08:46:32;25.90;;;24.13;;
2019;SDS011;1014;51.960;8.542;2022-12-18T08:49:00;25.88;;;24.17;;
2019;SDS011;1014;51.960;8.542;2022-12-18T08:51:27;26.50;;;24.50;;
2019;SDS011;1014;51.960;8.542;2022-12-18T08:53:54;24.88;;;23.30;;
2019;SDS011;1014;51.960;8.542;2022-12-18T08:56:23;24.63;;;23.13;;
2019;SDS011;1014;51.960;8.542;2022-12-18T08:58:51;26.08;;;24.45;;
2019;SDS011;1014;51.960;8.542;2022-12-18T09:01:18;22.77;;;21.58;;
2019;SDS011;1014;51.960;8.542;2022-12-18T09:03:45;25.98;;;24.38;;
2019;SDS011;1014;51.960;8.542;2022-12-18T09:06:13;30.67;;;28.20;;
2019;SDS011;1014;51.960;8.542;2022-12-18T09:08:40;27.02;;;25.23;;
2019;SDS011;1014;51.960;8.542;2022-12-18T09:11:10;26.95;;;25.10;;
2019;SDS011;1014;51.960;8.542;2022-12-18T09:13:39;28.65;;;26.30;;
2019;SDS011;1014;51.960;8.542;2022-12-18T09:16:06;27.60;;;25.60;;
2019;SDS011;1014;51.960;8.542;2022-12-18T09:18:34;25.50;;;23.90;;
2019;SDS011;1014;51.960;8.542;2022-12-18T09:21:06;22.45;;;21.33;;
2019;SDS011;1014;51.960;8.542;2022-12-18T09:23:33;25.23;;;23.42;;
2019;SDS011;1014;51.960;8.542;2022-12-18T09:26:01;25.23;;;23.45;;
2019;SDS011;1014;51.960;8.542;2022-12-18T09:28:28;27.20;;;24.98;;
2019;SDS011;1014;51.960;8.542;2022-12-18T09:30:56;26.88;;;25.10;;
2019;SDS011;1014;51.960;8.542;2022-12-18T09:33:23;26.00;;;24.35;;
2019;SDS011;1014;51.960;8.542;2022-12-18T09:35:51;26.88;;;24.95;;
2019;SDS011;1014;51.960;8.542;2022-12-18T09:38:18;25.45;;;23.40;;
2019;SDS011;1014;51.960;8.542;2022-12-18T09:40:46;22.73;;;21.42;;
2019;SDS011;1014;51.960;8.542;2022-12-18T09:43:14;24.92;;;23.27;;
2019;SDS011;1014;51.960;8.542;2022-12-18T09:45:45;25.95;;;24.17;;
2019;SDS011;1014;51.960;8.542;2022-12-18T09:48:15;25.67;;;23.77;;
2019;SDS011;1014;51.960;8.542;2022-12-18T09:50:44;26.15;;;24.35;;
2019;SDS011;1014;51.960;8.542;2022-12-18T09:53:12;28.55;;;26.10;;
2019;SDS011;1014;51.960;8.542;2022-12-18T09:55:40;23.70;;;22.35;;
2019;SDS011;1014;51.960;8.542;2022-12-18T09:58:12;24.63;;;23.00;;
2019;SDS011;1014;51.960;8.542;2022-12-18T10:00:40;25.70;;;24.00;;
2019;SDS011;1014;51.960;8.542;2022-12-18T10:03:08;25.13;;;23.10;;
2019;SDS011;1014;51.960;8.542;2022-12-18T10:05:39;26.23;;;24.05;;
2019;SDS011;1014;51.960;8.542;2022-12-18T10:08:10;25.40;;;23.58;;
2019;SDS011;1014;51.960;8.542;2022-12-18T10:10:40;24.13;;;22.73;;
2019;SDS011;1014;51.960;8.542;2022-12-18T10:13:10;27.30;;;25.17;;
2019;SDS011;1014;51.960;8.542;2022-12-18T10:15:40;26.05;;;24.17;;
2019;SDS011;1014;51.960;8.542;2022-12-18T10:18:16;24.98;;;23.27;;
2019;SDS011;1014;51.960;8.542;2022-12-18T10:20:48;24.08;;;22.17;;
2019;SDS011;1014;51.960;8.542;2022-12-18T10:23:17;24.58;;;22.92;;
2019;SDS011;1014;51.960;8.542;2022-12-18T10:25:48;23.38;;;21.85;;
2019;SDS011;1014;51.960;8.542;2022-12-18T10:28:17;31.77;;;29.10;;
2019;SDS011;1014;51.960;8.542;2022-12-18T10:30:45;25.90;;;23.80;;
2019;SDS011;1014;51.960;8.542;2022-12-18T10:33:13;23.85;;;22.35;;
2019;SDS011;1014;51.960;8.542;2022-12-18T10:35:41;25.27;;;23.65;;
2019;SDS011;1014;51.960;8.542;2022-12-18T10:38:21;25.08;;;23.38;;
2019;SDS011;1014;51.960;8.542;2022-12-18T10:40:50;25.17;;;23.38;;
2019;SDS011;1014;51.960;8.542;2022-12-18T10:43:19;24.02;;;22.42;;
2019;SDS011;1014;51.960;8.542;2022-12-18T10:45:58;23.20;;;21.73;;
2019;SDS011;1014;51.960;8.542;2022-12-18T10:48:25;24.38;;;22.55;;
2019;SDS011;1014;51.960;8.542;2022-12-18T10:50:53;23.20;;;21.70;;
2019;SDS011;1014;51.960;8.542;2022-12-18T10:53:23;23.83;;;22.33;;
2019;SDS011;1014;51.960;8.542;2022-12-18T10:55:50;21.58;;;20.38;;
2019;SDS011;1014;51.960;8.542;2022-12-18T10:58:21;24.48;;;22.88;;
2019;SDS011;1014;51.960;8.542;2022-12-18T11:01:01;24.30;;;22.60;;
2019;SDS011;1014;51.960;8.542;2022-12-18T11:03:30;24.50;;;22.80;;
2019;SDS011;1014;51.960;8.542;2022-12-18T11:06:01;26.20;;;24.35;;
2019;SDS011;1014;51.960;8.542;2022-12-18T11:08:30;24.08;;;22.67;;
2019;SDS011;1014;51.960;8.542;2022-12-18T11:10:57;23.35;;;22.05;;
2019;SDS011;1014;51.960;8.542;2022-12-18T11:13:25;24.65;;;22.95;;
2019;SDS011;1014;51.960;8.542;2022-12-18T11:15:53;26.75;;;24.45;;
2019;SDS011;1014;51.960;8.542;2022-12-18T11:18:22;27.05;;;25.05;;
2019;SDS011;1014;51.960;8.542;2022-12-18T11:20:52;26.02;;;24.33;;
2019;SDS011;1014;51.960;8.542;2022-12-18T11:23:20;24.25;;;22.65;;
2019;SDS011;1014;51.960;8.542;2022-12-18T11:25:54;24.13;;;22.52;;
2019;SDS011;1014;51.960;8.542;2022-12-18T11:28:28;22.75;;;21.50;;
2019;SDS011;1014;51.960;8.542;2022-12-18T11:31:11;23.08;;;21.88;;
2019;SDS011;1014;51.960;8.542;2022-12-18T11:33:39;22.13;;;20.90;;
2019;SDS011;1014;51.960;8.542;2022-12-18T11:36:08;24.20;;;22.70;;
2019;SDS011;1014;51.960;8.542;2022-12-18T11:38:37;23.02;;;21.73;;
2019;SDS011;1014;51.960;8.542;2022-12-18T11:41:07;24.10;;;22.70;;
2019;SDS011;1014;51.960;8.542;2022-12-18T11:43:41;24.77;;;23.08;;
2019;SDS011;1014;51.960;8.542;2022-12-18T11:46:12;22.48;;;21.17;;
2019;SDS011;1014;51.960;8.542;2022-12-18T11:48:41;23.20;;;21.85;;
2019;SDS011;1014;51.960;8.542;2022-12-18T11:51:11;24.67;;;23.05;;
2019;SDS011;1014;51.960;8.542;2022-12-18T11:53:40;24.08;;;22.58;;
2019;SDS011;1014;51.960;8.542;2022-12-18T11:56:13;24.88;;;23.17;;
2019;SDS011;1014;51.960;8.542;2022-12-18T11:58:45;23.83;;;22.27;;
2019;SDS011;1014;51.960;8.542;2022-12-18T12:01:15;24.35;;;22.85;;
2019;SDS011;1014;51.960;8.542;2022-12-18T12:03:50;24.95;;;23.30;;
2019;SDS011;1014;51.960;8.542;2022-12-18T12:06:23;23.85;;;22.55;;
2019;SDS011;1014;51.960;8.542;2022-12-18T12:09:00;26.17;;;24.52;;
2019;SDS011;1014;51.960;8.542;2022-12-18T12:11:35;26.70;;;25.00;;
2019;SDS011;1014;51.960;8.542;2022-12-18T12:14:12;26.38;;;24.67;;
2019;SDS011;1014;51.960;8.542;2022-12-18T12:16:44;23.77;;;22.23;;
2019;SDS011;1014;51.960;8.542;2022-12-18T12:19:18;25.70;;;24.00;;
2019;SDS011;1014;51.960;8.542;2022-12-18T12:21:48;24.95;;;23.55;;
2019;SDS011;1014;51.960;8.542;2022-12-18T12:24:22;25.63;;;24.02;;
2019;SDS011;1014;51.960;8.542;2022-12-18T12:26:56;25.33;;;23.73;;
2019;SDS011;1014;51.960;8.542;2022-12-18T12:29:31;23.00;;;21.70;;
2019;SDS011;1014;51.960;8.542;2022-12-18T12:32:04;25.50;;;24.00;;
2019;SDS011;1014;51.960;8.542;2022-12-18T12:34:34;25.67;;;23.95;;
2019;SDS011;1014;51.960;8.542;2022-12-18T12:37:10;24.98;;;23.38;;
2019;SDS011;1014;51.960;8.542;2022-12-18T12:39:42;24.30;;;22.75;;
2019;SDS011;1014;51.960;8.542;2022-12-18T12:42:13;24.33;;;22.85;;
2019;SDS011;1014;51.960;8.542;2022-12-18T12:45:05;27.02;;;25.23;;
2019;SDS011;1014;51.960;8.542;2022-12-18T12:47:37;25.52;;;23.92;;
2019;SDS011;1014;51.960;8.542;2022-12-18T12:50:05;23.90;;;22.50;;
2019;SDS011;1014;51.960;8.542;2022-12-18T12:52:34;25.83;;;24.13;;
2019;SDS011;1014;51.960;8.542;2022-12-18T12:55:04;23.20;;;21.70;;
2019;SDS011;1014;51.960;8.542;2022-12-18T12:57:36;25.02;;;23.55;;
2019;SDS011;1014;51.960;8.542;2022-12-18T13:00:05;24.65;;;23.02;;
2019;SDS011;1014;51.960;8.542;2022-12-18T13:02:33;26.42;;;24.75;;
2019;SDS011;1014;51.960;8.542;2022-12-18T13:05:04;26.55;;;24.67;;
2019;SDS011;1014;51.960;8.542;2022-12-18T13:07:35;25.95;;;23.85;;
2019;SDS011;1014;51.960;8.542;2022-12-18T13:12:53;24.83;;;23.17;;
2019;SDS011;1014;51.960;8.542;2022-12-18T13:15:24;24.55;;;22.85;;
2019;SDS011;1014;51.960;8.542;2022-12-18T13:20:38;24.83;;;23.48;;
2019;SDS011;1014;51.960;8.542;2022-12-18T13:25:52;23.40;;;21.90;;
2019;SDS011;1014;51.960;8.542;2022-12-18T13:28:21;23.20;;;21.65;;
2019;SDS011;1014;51.960;8.542;2022-12-18T13:30:51;23.48;;;22.17;;
2019;SDS011;1014;51.960;8.542;2022-12-18T13:36:23;23.50;;;22.00;;
2019;SDS011;1014;51.960;8.542;2022-12-18T13:41:34;28.40;;;26.30;;
2019;SDS011;1014;51.960;8.542;2022-12-18T13:44:11;25.98;;;24.30;;
2019;SDS011;1014;51.960;8.542;2022-12-18T13:46:42;24.10;;;22.58;;
2019;SDS011;1014;51.960;8.542;2022-12-18T13:49:18;24.02;;;22.52;;
2019;SDS011;1014;51.960;8.542;2022-12-18T13:51:48;23.70;;;22.20;;
2019;SDS011;1014;51.960;8.542;2022-12-18T13:54:17;22.60;;;21.20;;
2019;SDS011;1014;51.960;8.542;2022-12-18T13:56:46;23.77;;;22.08;;
2019;SDS011;1014;51.960;8.542;2022-12-18T13:59:16;24.42;;;22.83;;
2019;SDS011;1014;51.960;8.542;2022-12-18T14:01:47;25.23;;;23.50;;
2019;SDS011;1014;51.960;8.542;2022-12-18T14:04:19;23.25;;;21.85;;
2019;SDS011;1014;51.960;8.542;2022-12-18T14:06:47;22.48;;;21.15;;
2019;SDS011;1014;51.960;8.542;2022-12-18T14:09:16;24.67;;;22.98;;
2019;SDS011;1014;51.960;8.542;2022-12-18T14:11:46;23.48;;;22.02;;
2019;SDS011;1014;51.960;8.542;2022-12-18T14:14:15;24.85;;;23.05;;
2019;SDS011;1014;51.960;8.542;2022-12-18T14:16:43;24.67;;;23.08;;
2019;SDS011;1014;51.960;8.542;2022-12-18T14:19:11;24.55;;;22.95;;
2019;SDS011;1014;51.960;8.542;2022-12-18T14:21:40;25.52;;;23.90;;
2019;SDS011;1014;51.960;8.542;2022-12-18T14:24:12;22.70;;;21.30;;
2019;SDS011;1014;51.960;8.542;2022-12-18T14:26:40;24.38;;;22.73;;
2019;SDS011;1014;51.960;8.542;2022-12-18T14:29:25;23.20;;;21.80;;
2019;SDS011;1014;51.960;8.542;2022-12-18T14:32:10;23.20;;;21.80;;
2019;SDS011;1014;51.960;8.542;2022-12-18T14:34:37;23.63;;;22.02;;
2019;SDS011;1014;51.960;8.542;2022-12-18T14:37:05;23.70;;;22.30;;
2019;SDS011;1014;51.960;8.542;2022-12-18T14:39:32;23.65;;;22.25;;
2019;SDS011;1014;51.960;8.542;2022-12-18T14:41:59;24.70;;;23.20;;
2019;SDS011;1014;51.960;8.542;2022-12-18T14:44:29;24.60;;;22.90;;
2019;SDS011;1014;51.960;8.542;2022-12-18T14:46:56;24.17;;;22.77;;
2019;SDS011;1014;51.960;8.542;2022-12-18T14:49:24;25.23;;;23.63;;
2019;SDS011;1014;51.960;8.542;2022-12-18T14:51:53;23.83;;;22.42;;
2019;SDS011;1014;51.960;8.542;2022-12-18T14:54:21;26.85;;;24.83;;
2019;SDS011;1014;51.960;8.542;2022-12-18T14:56:49;25.73;;;23.92;;
2019;SDS011;1014;51.960;8.542;2022-12-18T14:59:19;23.30;;;21.98;;
2019;SDS011;1014;51.960;8.542;2022-12-18T15:01:49;24.48;;;23.08;;
2019;SDS011;1014;51.960;8.542;2022-12-18T15:04:23;23.52;;;22.23;;
2019;SDS011;1014;51.960;8.542;2022-12-18T15:07:02;24.08;;;22.50;;
2019;SDS011;1014;51.960;8.542;2022-12-18T15:09:29;25.85;;;24.05;;
2019;SDS011;1014;51.960;8.542;2022-12-18T15:11:57;24.00;;;22.40;;
2019;SDS011;1014;51.960;8.542;2022-12-18T15:14:32;26.05;;;24.40;;